createdAt,value
2022-09-20T00:00:02.767Z,4.78
2022-09-20T00:25:41.966Z,6.10
2022-09-20T00:28:10.894Z,2.85
2022-09-20T00:36:01.026Z,3.90
2022-09-20T00:38:33.523Z,2.45
2022-09-20T00:41:04.787Z,3.85
2022-09-20T00:43:40.208Z,2.25
2022-09-20T00:46:08.989Z,3.83
2022-09-20T00:48:36.651Z,4.75
2022-09-20T00:51:12.699Z,3.60
2022-09-20T00:59:06.278Z,5.75
2022-09-20T01:18:45.617Z,5.00
2022-09-20T01:21:13.773Z,6.45
2022-09-20T01:24:04.228Z,9.18
2022-09-20T01:26:52.314Z,5.28
2022-09-20T01:29:23.583Z,3.45
2022-09-20T01:31:54.561Z,4.88
2022-09-20T01:34:31.431Z,3.13
2022-09-20T01:37:11.329Z,2.65
2022-09-20T01:39:49.650Z,2.70
2022-09-20T01:42:17.769Z,3.38
2022-09-20T01:45:02.241Z,3.90
2022-09-20T01:47:29.620Z,3.65
2022-09-20T01:50:06.360Z,2.95
2022-09-20T01:52:56.894Z,4.78
2022-09-20T01:55:36.416Z,6.30
2022-09-20T01:58:26.823Z,6.35
2022-09-20T02:03:54.747Z,3.63
2022-09-20T02:20:14.767Z,4.03
2022-09-20T02:22:45.101Z,4.07
2022-09-20T02:25:22.071Z,3.08
2022-09-20T02:50:26.963Z,2.53
2022-09-20T03:49:26.296Z,8.30
2022-09-20T03:52:09.006Z,3.17
2022-09-20T03:54:39.837Z,5.13
2022-09-20T03:57:16.777Z,10.88
2022-09-20T04:00:06.501Z,5.07
2022-09-20T04:02:49.416Z,3.88
2022-09-20T04:05:22.606Z,3.70
2022-09-20T04:08:00.406Z,3.95
2022-09-20T04:10:33.981Z,3.22
2022-09-20T04:13:10.674Z,3.97
2022-09-20T04:15:59.576Z,6.88
2022-09-20T04:18:52.872Z,3.53
2022-09-20T04:23:54.080Z,4.00
2022-09-20T04:26:27.058Z,4.43
2022-09-20T04:28:56.607Z,3.53
2022-09-20T04:31:27.599Z,3.25
2022-09-20T04:33:58.237Z,4.47
2022-09-20T04:36:39.580Z,5.60
2022-09-20T04:39:10.239Z,5.00
2022-09-20T04:41:50.485Z,4.10
2022-09-20T04:44:37.712Z,6.50
2022-09-20T04:47:23.771Z,4.65
2022-09-20T04:49:51.186Z,4.68
2022-09-20T04:52:25.968Z,4.03
2022-09-20T04:54:56.464Z,5.50
2022-09-20T04:57:49.651Z,4.93
2022-09-20T05:00:22.356Z,2.78
2022-09-20T05:03:06.529Z,3.72
2022-09-20T05:05:40.132Z,3.58
2022-09-20T05:08:22.949Z,3.63
2022-09-20T05:11:10.376Z,5.47
2022-09-20T05:13:54.854Z,3.42
2022-09-20T05:16:44.050Z,2.90
2022-09-20T05:19:14.931Z,4.22
2022-09-20T05:21:50.774Z,3.60
2022-09-20T05:24:44.806Z,3.53
2022-09-20T05:27:51.140Z,6.80
2022-09-20T05:30:31.097Z,4.90
2022-09-20T05:32:59.334Z,3.80
2022-09-20T05:35:45.410Z,4.40
2022-09-20T05:38:14.846Z,2.33
2022-09-20T05:40:51.172Z,3.78
2022-09-20T05:43:21.469Z,5.03
2022-09-20T05:45:58.012Z,4.72
2022-09-20T05:48:46.401Z,4.40
2022-09-20T05:51:32.051Z,5.20
2022-09-20T05:54:20.895Z,4.15
2022-09-20T05:57:08.559Z,3.13
2022-09-20T05:59:47.366Z,3.95
2022-09-20T06:02:36.514Z,3.97
2022-09-20T06:05:14.880Z,3.90
2022-09-20T06:07:51.475Z,3.15
2022-09-20T06:10:32.006Z,4.65
2022-09-20T06:13:23.407Z,4.30
2022-09-20T06:16:00.229Z,5.93
2022-09-20T06:18:30.289Z,4.10
2022-09-20T06:20:57.901Z,4.65
2022-09-20T06:23:31.624Z,4.30
2022-09-20T06:26:24.419Z,4.57
2022-09-20T06:28:58.420Z,4.43
2022-09-20T06:31:32.084Z,3.83
2022-09-20T06:34:04.521Z,3.17
2022-09-20T06:36:53.345Z,3.22
2022-09-20T06:39:45.056Z,4.60
2022-09-20T06:42:13.927Z,4.82
2022-09-20T06:44:43.861Z,3.00
2022-09-20T06:47:13.335Z,4.53
2022-09-20T06:49:43.042Z,3.88
2022-09-20T06:52:15.522Z,5.68
2022-09-20T06:54:49.914Z,5.85
2022-09-20T06:57:43.943Z,4.07
2022-09-20T07:00:22.882Z,6.13
2022-09-20T07:02:53.470Z,6.53
2022-09-20T07:05:23.860Z,8.05
2022-09-20T07:07:52.246Z,3.25
2022-09-20T07:10:19.937Z,4.25
2022-09-20T07:12:47.465Z,5.38
2022-09-20T07:15:15.854Z,4.93
2022-09-20T07:17:48.113Z,2.95
2022-09-20T07:20:21.478Z,7.47
2022-09-20T07:22:52.767Z,4.65
2022-09-20T07:25:22.715Z,7.03
2022-09-20T07:27:51.050Z,4.00
2022-09-20T07:30:19.480Z,6.10
2022-09-20T07:40:48.897Z,4.50
2022-09-20T07:43:16.697Z,7.63
2022-09-20T07:45:44.579Z,3.88
2022-09-20T07:48:12.332Z,5.63
2022-09-20T07:50:42.556Z,4.93
2022-09-20T07:53:10.161Z,4.28
2022-09-20T07:55:37.796Z,4.18
2022-09-20T07:58:10.431Z,5.30
2022-09-20T08:00:45.178Z,6.00
2022-09-20T08:31:06.796Z,14.47
2022-09-20T08:45:09.207Z,9.40
2022-09-20T08:47:39.212Z,13.15
2022-09-20T08:50:35.015Z,8.98
2022-09-20T08:53:06.232Z,13.70
2022-09-20T08:55:37.932Z,11.93
2022-09-20T08:58:08.725Z,10.88
2022-09-20T09:00:37.211Z,11.07
2022-09-20T09:03:14.051Z,8.63
2022-09-20T09:08:58.661Z,10.02
2022-09-20T09:11:29.211Z,10.20
2022-09-20T09:13:59.257Z,7.55
2022-09-20T09:42:21.470Z,12.57
2022-09-20T09:47:34.750Z,15.20
2022-09-20T09:50:43.695Z,11.95
2022-09-20T09:59:14.385Z,14.30
2022-09-20T10:22:04.717Z,12.57
2022-09-20T10:30:13.178Z,14.05
2022-09-20T10:41:23.487Z,13.00
2022-09-20T11:09:14.148Z,10.00
2022-09-20T11:11:50.595Z,13.63
2022-09-20T11:14:33.955Z,16.50
2022-09-20T11:17:26.803Z,11.57
2022-09-20T11:22:48.968Z,13.90
2022-09-20T11:28:23.686Z,11.05
2022-09-20T11:33:48.485Z,13.43
2022-09-20T11:36:46.961Z,19.63
2022-09-20T11:39:20.060Z,19.80
2022-09-20T11:47:54.638Z,11.65
2022-09-20T11:50:45.986Z,9.70
2022-09-20T12:02:08.180Z,14.48
2022-09-20T12:21:22.701Z,14.38
2022-09-20T12:29:36.642Z,11.68
2022-09-20T12:32:23.957Z,11.52
2022-09-20T12:34:53.279Z,12.88
2022-09-20T12:37:24.483Z,10.32
2022-09-20T12:39:59.504Z,13.82
2022-09-20T12:42:31.740Z,14.00
2022-09-20T12:45:08.913Z,15.00
2022-09-20T12:47:37.666Z,10.55
2022-09-20T12:50:32.106Z,14.52
2022-09-20T12:53:07.070Z,13.23
2022-09-20T12:55:39.132Z,10.30
2022-09-20T13:06:21.015Z,10.98
2022-09-20T13:28:34.628Z,10.27
2022-09-20T13:47:06.712Z,10.57
2022-09-20T14:03:37.240Z,12.45
2022-09-20T17:30:47.873Z,8.02
2022-09-20T17:50:03.983Z,10.43
2022-09-20T17:52:34.377Z,9.02
2022-09-20T17:55:01.817Z,9.48
2022-09-20T17:57:29.265Z,8.98
2022-09-20T17:59:56.750Z,8.68
2022-09-20T18:02:27.551Z,12.65
2022-09-20T18:04:55.702Z,11.65
2022-09-20T18:07:29.968Z,7.30
2022-09-20T18:09:58.376Z,8.73
2022-09-20T18:12:28.808Z,9.88
2022-09-20T18:15:00.968Z,6.93
2022-09-20T18:17:31.652Z,7.07
2022-09-20T18:20:01.752Z,10.45
2022-09-20T19:10:03.732Z,5.73
2022-09-20T19:12:37.922Z,7.82
2022-09-20T19:15:31.737Z,8.38
2022-09-20T19:18:23.637Z,6.38
2022-09-20T19:20:51.403Z,8.60
2022-09-20T20:01:01.875Z,9.82
2022-09-20T20:03:33.524Z,9.10
2022-09-20T20:06:07.900Z,9.20
2022-09-20T20:08:36.602Z,9.65
2022-09-20T20:11:25.040Z,5.90
2022-09-20T20:14:07.319Z,6.95
2022-09-20T20:16:47.582Z,10.95
2022-09-20T20:19:33.638Z,8.48
2022-09-20T20:22:24.399Z,7.57
2022-09-20T20:24:54.596Z,6.88
2022-09-20T20:27:25.364Z,7.88
2022-09-20T20:29:53.752Z,9.20
2022-09-20T20:32:26.834Z,9.15
2022-09-20T20:35:00.147Z,11.93
2022-09-20T20:37:28.769Z,9.90
2022-09-20T20:39:57.306Z,6.55
2022-09-20T20:42:27.224Z,6.65
2022-09-20T20:44:54.768Z,7.57
2022-09-20T20:47:22.639Z,7.05
2022-09-20T20:49:58.499Z,5.45
2022-09-20T20:52:28.021Z,7.20
2022-09-20T20:54:57.150Z,7.25
2022-09-20T20:57:30.321Z,7.35
2022-09-20T20:59:57.971Z,6.15
2022-09-20T21:02:25.542Z,6.80
2022-09-20T21:04:54.238Z,6.72
2022-09-20T21:07:24.953Z,8.20
2022-09-20T21:09:57.588Z,6.00
2022-09-20T21:12:28.771Z,9.68
2022-09-20T21:14:56.167Z,9.68
2022-09-20T21:17:23.644Z,13.02
2022-09-20T21:19:52.784Z,9.40
2022-09-20T21:22:25.839Z,11.43
2022-09-20T21:24:55.968Z,7.25
2022-09-20T21:27:27.871Z,7.07
2022-09-20T21:29:55.701Z,5.45
2022-09-20T21:32:23.179Z,5.80
2022-09-20T21:34:53.408Z,6.63
2022-09-20T21:37:21.228Z,7.65
2022-09-20T21:39:48.664Z,8.52
2022-09-20T21:42:20.431Z,7.28
2022-09-20T21:44:48.172Z,7.35
2022-09-20T21:47:20.775Z,7.55
2022-09-20T21:49:50.983Z,5.80
2022-09-20T21:52:24.846Z,41.50
2022-09-20T21:54:52.541Z,17.40
2022-09-20T21:57:23.288Z,13.82
2022-09-20T21:59:53.661Z,11.07
2022-09-20T22:02:26.435Z,10.57
2022-09-20T22:04:59.978Z,9.18
2022-09-20T22:07:27.424Z,7.30
2022-09-20T22:09:54.906Z,7.00
2022-09-20T22:12:24.098Z,7.72
2022-09-20T22:14:53.880Z,8.82
2022-09-20T22:17:23.859Z,10.73
2022-09-20T22:19:51.299Z,8.93
2022-09-20T22:22:21.729Z,7.85
2022-09-20T22:24:49.220Z,8.50
2022-09-20T22:27:16.682Z,9.80
2022-09-20T22:29:44.197Z,7.32
2022-09-20T22:32:11.720Z,6.22
2022-09-20T22:34:39.270Z,15.65
2022-09-20T22:37:06.735Z,9.68
2022-09-20T22:39:34.150Z,7.97
2022-09-20T22:42:03.638Z,9.73
2022-09-20T22:44:31.023Z,8.18
2022-09-20T22:46:58.425Z,10.80
2022-09-20T22:49:25.803Z,8.10
2022-09-20T22:51:53.204Z,7.13
2022-09-20T22:54:21.014Z,8.98
2022-09-20T22:56:53.557Z,7.60
2022-09-20T22:59:21.056Z,7.40
2022-09-20T23:01:49.253Z,10.50
2022-09-20T23:04:18.175Z,7.30
2022-09-20T23:06:51.360Z,9.35
2022-09-20T23:09:21.751Z,8.20
2022-09-20T23:11:49.502Z,10.43
2022-09-20T23:14:20.254Z,7.93
2022-09-20T23:16:47.957Z,8.77
2022-09-20T23:19:17.569Z,9.88
2022-09-20T23:21:45.367Z,11.23
2022-09-20T23:24:17.874Z,10.20
2022-09-20T23:29:14.005Z,13.13
2022-09-20T23:31:45.805Z,10.57
2022-09-20T23:34:14.613Z,10.05
2022-09-20T23:36:43.040Z,8.98
2022-09-20T23:39:11.403Z,9.38
2022-09-20T23:41:40.385Z,8.52
2022-09-20T23:44:13.144Z,10.02
2022-09-20T23:46:40.681Z,7.65
2022-09-20T23:49:09.869Z,7.47
2022-09-20T23:51:38.833Z,9.10
2022-09-20T23:54:08.095Z,6.78
2022-09-20T23:56:36.532Z,10.70
2022-09-20T23:59:13.849Z,9.73
